createdAt,value
2022-07-29T00:00:10.841Z,25.37
2022-07-29T00:03:14.600Z,25.35
2022-07-29T00:06:17.091Z,25.31
2022-07-29T00:09:19.779Z,25.22
2022-07-29T00:12:26.714Z,25.22
2022-07-29T00:15:29.697Z,25.21
2022-07-29T00:18:32.823Z,25.20
2022-07-29T00:21:35.547Z,25.19
2022-07-29T00:24:38.138Z,25.19
2022-07-29T00:27:41.165Z,25.18
2022-07-29T00:30:44.360Z,25.17
2022-07-29T00:33:46.824Z,25.04
2022-07-29T00:36:49.007Z,25.13
2022-07-29T00:39:51.579Z,25.14
2022-07-29T00:42:54.052Z,25.10
2022-07-29T00:45:56.642Z,25.11
2022-07-29T00:48:59.000Z,25.13
2022-07-29T00:52:12.043Z,25.06
2022-07-29T00:55:16.874Z,25.02
2022-07-29T00:58:19.432Z,25.06
2022-07-29T01:01:21.761Z,25.13
2022-07-29T01:04:24.565Z,25.12
2022-07-29T01:07:27.813Z,25.00
2022-07-29T01:10:31.257Z,25.11
2022-07-29T01:13:34.339Z,25.09
2022-07-29T01:16:55.726Z,25.05
2022-07-29T01:20:06.035Z,25.03
2022-07-29T01:23:17.557Z,25.04
2022-07-29T01:26:41.863Z,24.97
2022-07-29T01:29:55.056Z,24.88
2022-07-29T01:33:03.069Z,24.84
2022-07-29T01:36:11.992Z,24.81
2022-07-29T01:39:22.818Z,24.90
2022-07-29T01:42:35.092Z,24.89
2022-07-29T01:45:46.338Z,24.86
2022-07-29T01:48:53.914Z,24.78
2022-07-29T01:52:12.250Z,24.90
2022-07-29T01:55:16.563Z,24.86
2022-07-29T01:58:20.247Z,24.84
2022-07-29T02:01:23.930Z,24.86
2022-07-29T02:04:29.799Z,24.86
2022-07-29T02:07:33.944Z,24.83
2022-07-29T02:10:39.315Z,24.80
2022-07-29T02:13:43.099Z,24.64
2022-07-29T02:16:50.243Z,24.65
2022-07-29T02:19:56.908Z,24.63
2022-07-29T02:23:01.768Z,24.74
2022-07-29T02:26:04.972Z,24.71
2022-07-29T02:29:09.414Z,24.68
2022-07-29T02:32:15.083Z,24.59
2022-07-29T02:35:19.414Z,24.67
2022-07-29T02:38:41.830Z,24.63
2022-07-29T02:41:55.625Z,24.56
2022-07-29T02:44:57.972Z,24.51
2022-07-29T02:48:04.302Z,24.49
2022-07-29T02:51:12.753Z,24.50
2022-07-29T02:54:42.816Z,24.43
2022-07-29T02:57:54.996Z,24.39
2022-07-29T03:01:02.131Z,24.37
2022-07-29T03:04:06.116Z,24.34
2022-07-29T03:07:11.393Z,24.33
2022-07-29T03:10:14.409Z,24.22
2022-07-29T03:13:17.913Z,24.22
2022-07-29T03:16:21.137Z,24.30
2022-07-29T03:19:24.149Z,24.30
2022-07-29T03:22:26.501Z,24.31
2022-07-29T03:25:29.180Z,24.29
2022-07-29T03:28:31.859Z,24.21
2022-07-29T03:31:35.145Z,24.29
2022-07-29T03:34:38.799Z,24.25
2022-07-29T03:37:41.425Z,24.23
2022-07-29T03:40:53.978Z,24.21
2022-07-29T03:43:58.323Z,24.14
2022-07-29T03:47:03.045Z,24.08
2022-07-29T03:50:12.938Z,24.00
2022-07-29T03:53:15.394Z,23.95
2022-07-29T03:56:22.517Z,23.89
2022-07-29T03:59:24.995Z,23.89
2022-07-29T04:02:30.676Z,23.90
2022-07-29T04:05:33.705Z,23.85
2022-07-29T04:08:36.794Z,23.76
2022-07-29T04:11:59.183Z,23.82
2022-07-29T04:15:05.132Z,23.71
2022-07-29T04:18:07.663Z,23.81
2022-07-29T04:21:09.892Z,23.79
2022-07-29T04:24:12.754Z,23.78
2022-07-29T04:27:15.213Z,23.76
2022-07-29T04:30:17.796Z,23.71
2022-07-29T04:33:20.087Z,23.67
2022-07-29T04:36:28.857Z,23.58
2022-07-29T04:39:32.125Z,23.70
2022-07-29T04:42:34.661Z,23.59
2022-07-29T04:45:47.357Z,23.71
2022-07-29T04:48:49.961Z,23.64
2022-07-29T04:51:52.561Z,23.76
2022-07-29T04:54:55.138Z,23.78
2022-07-29T04:57:57.449Z,23.70
2022-07-29T05:01:01.367Z,23.82
2022-07-29T05:04:03.772Z,23.87
2022-07-29T05:07:06.369Z,23.97
2022-07-29T05:10:09.576Z,23.86
2022-07-29T05:13:11.999Z,24.04
2022-07-29T05:16:15.175Z,24.11
2022-07-29T05:19:18.562Z,24.19
2022-07-29T05:22:21.277Z,24.25
2022-07-29T05:25:40.811Z,24.34
2022-07-29T05:28:46.793Z,24.35
2022-07-29T05:31:49.307Z,24.47
2022-07-29T05:34:51.969Z,24.59
2022-07-29T05:37:54.549Z,24.53
2022-07-29T05:41:00.620Z,24.71
2022-07-29T05:44:03.546Z,24.77
2022-07-29T05:47:07.424Z,24.86
2022-07-29T05:50:10.135Z,24.96
2022-07-29T05:53:19.463Z,25.06
2022-07-29T05:56:22.922Z,25.07
2022-07-29T05:59:30.148Z,25.17
2022-07-29T06:02:33.204Z,25.16
2022-07-29T06:05:35.944Z,25.35
2022-07-29T06:08:38.841Z,25.33
2022-07-29T06:11:41.545Z,25.51
2022-07-29T06:14:43.948Z,25.57
2022-07-29T06:17:59.257Z,25.68
2022-07-29T06:21:02.549Z,25.69
2022-07-29T06:24:05.722Z,25.85
2022-07-29T06:27:08.029Z,25.89
2022-07-29T06:30:10.995Z,25.95
2022-07-29T06:33:18.238Z,26.05
2022-07-29T06:36:20.811Z,26.12
2022-07-29T06:39:25.215Z,26.25
2022-07-29T06:42:27.750Z,26.44
2022-07-29T06:45:30.249Z,26.47
2022-07-29T06:48:33.733Z,26.69
2022-07-29T06:51:36.045Z,26.83
2022-07-29T06:54:39.640Z,26.95
2022-07-29T06:57:42.051Z,26.96
2022-07-29T07:00:46.049Z,27.08
2022-07-29T07:03:48.442Z,27.24
2022-07-29T07:09:40.130Z,28.75
2022-07-29T07:12:43.825Z,28.75
2022-07-29T07:15:48.748Z,28.37
2022-07-29T07:18:51.234Z,28.66
2022-07-29T07:21:54.249Z,28.96
2022-07-29T07:24:58.293Z,29.30
2022-07-29T07:28:00.563Z,29.64
2022-07-29T07:31:03.559Z,30.02
2022-07-29T07:34:05.818Z,30.01
2022-07-29T07:37:08.540Z,30.18
2022-07-29T07:40:18.652Z,30.34
2022-07-29T07:43:21.521Z,30.53
2022-07-29T07:46:23.856Z,30.80
2022-07-29T07:49:26.508Z,30.88
2022-07-29T07:52:28.914Z,31.07
2022-07-29T07:55:47.446Z,31.07
2022-07-29T07:58:53.756Z,31.25
2022-07-29T08:01:56.932Z,31.35
2022-07-29T08:05:00.541Z,31.75
2022-07-29T08:08:02.817Z,32.07
2022-07-29T08:11:09.387Z,32.42
2022-07-29T08:14:12.122Z,32.31
2022-07-29T08:17:16.355Z,32.78
2022-07-29T08:20:18.702Z,33.07
2022-07-29T08:23:21.569Z,33.29
2022-07-29T08:26:24.548Z,33.52
2022-07-29T08:29:27.189Z,33.88
2022-07-29T08:32:52.202Z,34.16
2022-07-29T08:35:52.119Z,34.33
2022-07-29T08:38:54.686Z,34.51
2022-07-29T08:41:57.763Z,34.76
2022-07-29T08:45:00.079Z,34.95
2022-07-29T08:48:02.696Z,35.22
2022-07-29T08:51:07.876Z,35.50
2022-07-29T08:54:11.327Z,35.49
2022-07-29T08:57:17.871Z,35.82
2022-07-29T09:00:21.848Z,36.35
2022-07-29T09:03:25.861Z,36.60
2022-07-29T09:06:35.537Z,36.54
2022-07-29T09:09:40.501Z,36.75
2022-07-29T09:12:43.189Z,37.03
2022-07-29T09:15:45.982Z,36.84
2022-07-29T09:18:48.583Z,37.14
2022-07-29T09:22:00.155Z,37.69
2022-07-29T09:25:02.914Z,38.13
2022-07-29T09:28:08.868Z,38.23
2022-07-29T09:31:11.770Z,38.07
2022-07-29T09:34:25.776Z,38.58
2022-07-29T09:37:29.601Z,39.03
2022-07-29T09:40:31.894Z,39.23
2022-07-29T09:43:34.853Z,39.30
2022-07-29T09:46:37.459Z,39.23
2022-07-29T09:50:01.152Z,38.52
2022-07-29T09:53:03.592Z,39.14
2022-07-29T09:56:06.757Z,39.48
2022-07-29T09:59:10.431Z,40.06
2022-07-29T10:02:17.763Z,40.35
2022-07-29T10:05:27.280Z,40.68
2022-07-29T10:08:39.311Z,40.16
2022-07-29T10:11:49.516Z,38.85
2022-07-29T10:14:52.778Z,39.20
2022-07-29T10:17:57.169Z,39.62
2022-07-29T10:21:02.157Z,40.26
2022-07-29T10:24:05.920Z,40.64
2022-07-29T10:27:10.124Z,40.92
2022-07-29T10:30:15.705Z,40.87
2022-07-29T10:33:49.007Z,40.24
2022-07-29T10:36:51.470Z,39.29
2022-07-29T10:40:01.675Z,38.64
2022-07-29T10:43:19.662Z,38.96
2022-07-29T10:46:23.293Z,39.34
2022-07-29T10:49:31.091Z,39.91
2022-07-29T10:52:53.720Z,40.34
2022-07-29T10:55:56.294Z,40.48
2022-07-29T10:59:22.878Z,40.72
2022-07-29T11:02:42.741Z,41.13
2022-07-29T11:05:56.870Z,41.31
2022-07-29T11:09:20.359Z,41.21
2022-07-29T11:12:39.777Z,41.25
2022-07-29T11:16:03.273Z,41.16
2022-07-29T11:19:11.268Z,41.33
2022-07-29T11:22:35.740Z,41.51
2022-07-29T11:25:50.430Z,41.90
2022-07-29T11:28:55.620Z,41.63
2022-07-29T11:32:18.157Z,41.45
2022-07-29T11:35:38.124Z,41.01
2022-07-29T11:38:42.567Z,40.82
2022-07-29T11:41:45.527Z,40.55
2022-07-29T11:45:09.076Z,40.29
2022-07-29T11:48:32.603Z,39.61
2022-07-29T11:51:38.698Z,39.00
2022-07-29T11:54:57.958Z,39.26
2022-07-29T11:58:03.953Z,39.60
2022-07-29T12:01:07.404Z,39.49
2022-07-29T12:04:10.058Z,38.87
2022-07-29T12:07:15.333Z,38.43
2022-07-29T12:10:19.986Z,37.83
2022-07-29T12:13:39.946Z,37.34
2022-07-29T12:16:42.501Z,36.89
2022-07-29T12:19:46.270Z,36.59
2022-07-29T12:22:50.301Z,36.55
2022-07-29T12:25:53.117Z,36.87
2022-07-29T12:28:56.713Z,37.13
2022-07-29T12:31:59.427Z,37.57
2022-07-29T12:35:16.860Z,38.12
2022-07-29T12:38:20.118Z,38.53
2022-07-29T12:41:22.806Z,38.90
2022-07-29T12:44:25.566Z,38.89
2022-07-29T12:47:28.191Z,38.85
2022-07-29T12:50:30.549Z,38.93
2022-07-29T12:53:33.582Z,38.99
2022-07-29T12:56:43.711Z,38.81
2022-07-29T12:59:59.306Z,38.83
2022-07-29T13:03:02.315Z,38.53
2022-07-29T13:06:04.925Z,38.62
2022-07-29T13:09:07.983Z,38.54
2022-07-29T13:12:12.965Z,38.79
2022-07-29T13:15:16.225Z,38.65
2022-07-29T13:18:35.038Z,38.77
2022-07-29T13:21:39.647Z,39.06
2022-07-29T13:24:58.917Z,38.88
2022-07-29T13:28:01.186Z,38.49
2022-07-29T13:31:07.749Z,38.32
2022-07-29T13:34:10.463Z,38.07
2022-07-29T13:37:13.279Z,37.04
2022-07-29T13:40:16.034Z,37.34
2022-07-29T13:43:18.578Z,37.34
2022-07-29T13:46:23.917Z,37.54
2022-07-29T13:49:26.965Z,37.55
2022-07-29T13:52:29.899Z,37.60
2022-07-29T13:55:35.010Z,37.55
2022-07-29T13:58:37.509Z,37.64
2022-07-29T14:01:43.199Z,37.12
2022-07-29T14:04:46.007Z,36.87
2022-07-29T14:07:48.230Z,36.79
2022-07-29T14:10:53.802Z,36.68
2022-07-29T14:13:56.139Z,36.60
2022-07-29T14:16:58.793Z,36.64
2022-07-29T14:20:01.383Z,36.57
2022-07-29T14:23:03.921Z,36.06
2022-07-29T14:26:08.731Z,36.06
2022-07-29T14:29:15.680Z,36.08
2022-07-29T14:32:18.027Z,35.92
2022-07-29T14:35:20.716Z,35.70
2022-07-29T14:38:23.019Z,35.71
2022-07-29T14:41:29.450Z,35.46
2022-07-29T14:44:34.245Z,35.50
2022-07-29T14:47:38.555Z,35.50
2022-07-29T14:50:41.296Z,35.51
2022-07-29T14:53:44.187Z,35.45
2022-07-29T14:56:47.128Z,35.28
2022-07-29T14:59:49.864Z,34.96
2022-07-29T15:03:01.840Z,34.72
2022-07-29T15:06:05.252Z,34.73
2022-07-29T15:09:07.753Z,34.58
2022-07-29T15:12:11.439Z,34.66
2022-07-29T15:15:13.979Z,34.61
2022-07-29T15:18:16.574Z,34.29
2022-07-29T15:21:28.426Z,34.33
2022-07-29T15:24:31.525Z,34.29
2022-07-29T15:27:33.730Z,34.15
2022-07-29T15:30:41.507Z,34.18
2022-07-29T15:33:45.864Z,34.06
2022-07-29T15:36:52.437Z,34.09
2022-07-29T15:39:59.905Z,33.99
2022-07-29T15:43:06.600Z,34.02
2022-07-29T15:46:27.729Z,33.91
2022-07-29T15:49:47.886Z,33.61
2022-07-29T15:52:51.863Z,33.62
2022-07-29T15:55:54.365Z,33.72
2022-07-29T15:58:56.993Z,33.70
2022-07-29T16:02:00.683Z,33.67
2022-07-29T16:05:03.461Z,33.54
2022-07-29T16:08:06.027Z,33.42
2022-07-29T16:11:08.402Z,33.41
2022-07-29T16:14:13.691Z,33.44
2022-07-29T16:17:16.764Z,33.36
2022-07-29T16:20:20.728Z,33.28
2022-07-29T16:23:24.836Z,33.17
2022-07-29T16:26:27.549Z,33.17
2022-07-29T16:29:30.102Z,33.10
2022-07-29T16:32:32.476Z,33.02
2022-07-29T16:35:39.473Z,32.89
2022-07-29T16:38:47.031Z,32.87
2022-07-29T16:41:50.058Z,32.71
2022-07-29T16:44:52.308Z,32.79
2022-07-29T16:48:00.022Z,32.73
2022-07-29T16:51:02.748Z,32.60
2022-07-29T16:54:05.458Z,32.68
2022-07-29T16:57:07.858Z,32.61
2022-07-29T17:00:11.143Z,32.50
2022-07-29T17:03:13.445Z,32.56
2022-07-29T17:06:16.153Z,32.42
2022-07-29T17:09:18.551Z,32.36
2022-07-29T17:12:21.109Z,32.27
2022-07-29T17:15:23.424Z,32.21
2022-07-29T17:18:25.993Z,32.26
2022-07-29T17:21:28.529Z,32.21
2022-07-29T17:24:31.045Z,32.14
2022-07-29T17:27:33.754Z,31.98
2022-07-29T17:30:36.272Z,31.94
2022-07-29T17:33:38.446Z,31.97
2022-07-29T17:36:41.004Z,31.89
2022-07-29T17:39:43.373Z,31.84
2022-07-29T17:42:45.983Z,31.78
2022-07-29T17:45:49.936Z,31.73
2022-07-29T17:48:57.238Z,31.70
2022-07-29T17:52:01.053Z,31.64
2022-07-29T17:55:04.011Z,31.57
2022-07-29T17:58:08.998Z,31.54
2022-07-29T18:01:11.865Z,31.50
2022-07-29T18:04:15.549Z,31.43
2022-07-29T18:07:18.535Z,31.39
2022-07-29T18:10:21.761Z,31.29
2022-07-29T18:13:23.984Z,31.27
2022-07-29T18:16:26.518Z,31.23
2022-07-29T18:19:29.747Z,31.17
2022-07-29T18:22:32.262Z,31.03
2022-07-29T18:25:35.188Z,31.04
2022-07-29T18:28:37.822Z,30.96
2022-07-29T18:31:42.303Z,30.79
2022-07-29T18:34:45.059Z,30.86
2022-07-29T18:38:01.039Z,30.78
2022-07-29T18:41:05.274Z,30.73
2022-07-29T18:44:09.595Z,30.55
2022-07-29T18:47:12.647Z,30.48
2022-07-29T18:50:16.502Z,30.43
2022-07-29T18:53:19.120Z,30.46
2022-07-29T18:56:21.343Z,30.29
2022-07-29T18:59:24.172Z,30.34
2022-07-29T19:02:27.881Z,30.17
2022-07-29T19:05:32.514Z,30.10
2022-07-29T19:08:34.813Z,30.08
2022-07-29T19:11:38.430Z,30.04
2022-07-29T19:14:40.729Z,29.89
2022-07-29T19:17:46.180Z,29.79
2022-07-29T19:20:48.544Z,29.69
2022-07-29T19:24:05.166Z,29.74
2022-07-29T19:27:09.758Z,29.64
2022-07-29T19:30:12.780Z,29.50
2022-07-29T19:33:17.565Z,29.40
2022-07-29T19:36:20.601Z,29.33
2022-07-29T19:39:35.019Z,29.35
2022-07-29T19:42:38.091Z,29.23
2022-07-29T19:45:42.701Z,29.12
2022-07-29T19:48:46.128Z,28.89
2022-07-29T19:51:48.390Z,28.76
2022-07-29T19:54:51.030Z,28.79
2022-07-29T19:57:53.762Z,28.70
2022-07-29T20:00:56.866Z,28.64
2022-07-29T20:03:59.455Z,28.55
2022-07-29T20:07:02.195Z,28.37
2022-07-29T20:10:06.347Z,28.40
2022-07-29T20:13:08.639Z,28.33
2022-07-29T20:16:11.220Z,28.27
2022-07-29T20:19:13.672Z,28.08
2022-07-29T20:22:21.270Z,28.01
2022-07-29T20:25:24.012Z,27.93
2022-07-29T20:28:26.568Z,27.92
2022-07-29T20:31:37.843Z,27.78
2022-07-29T20:34:43.883Z,27.74
2022-07-29T20:37:55.838Z,27.77
2022-07-29T20:40:59.064Z,27.70
2022-07-29T20:44:04.696Z,27.67
2022-07-29T20:47:07.300Z,27.58
2022-07-29T20:50:10.183Z,27.58
2022-07-29T20:53:12.934Z,27.48
2022-07-29T20:56:15.436Z,27.44
2022-07-29T20:59:19.650Z,27.28
2022-07-29T21:02:21.962Z,27.36
2022-07-29T21:05:24.744Z,27.32
2022-07-29T21:08:27.418Z,27.27
2022-07-29T21:11:43.445Z,27.23
2022-07-29T21:14:49.671Z,27.14
2022-07-29T21:17:59.924Z,26.99
2022-07-29T21:21:03.856Z,26.98
2022-07-29T21:24:08.114Z,26.88
2022-07-29T21:27:32.990Z,26.91
2022-07-29T21:30:36.636Z,26.90
2022-07-29T21:33:41.383Z,26.68
2022-07-29T21:36:48.073Z,26.63
2022-07-29T21:39:51.138Z,26.68
2022-07-29T21:42:53.724Z,26.64
2022-07-29T21:45:57.198Z,26.61
2022-07-29T21:48:59.837Z,26.44
2022-07-29T21:52:02.174Z,26.52
2022-07-29T21:55:05.095Z,26.45
2022-07-29T21:58:07.558Z,26.29
2022-07-29T22:01:10.152Z,26.29
2022-07-29T22:04:12.880Z,26.16
2022-07-29T22:07:15.256Z,26.23
2022-07-29T22:10:17.965Z,26.14
2022-07-29T22:13:20.211Z,26.05
2022-07-29T22:16:22.803Z,26.00
2022-07-29T22:19:27.344Z,25.85
2022-07-29T22:22:30.300Z,25.95
2022-07-29T22:25:32.648Z,25.81
2022-07-29T22:28:35.333Z,25.65
2022-07-29T22:31:37.588Z,25.71
2022-07-29T22:34:40.099Z,25.57
2022-07-29T22:37:42.325Z,25.61
2022-07-29T22:40:44.955Z,25.47
2022-07-29T22:43:47.540Z,25.45
2022-07-29T22:46:50.168Z,25.50
2022-07-29T22:49:52.500Z,25.40
2022-07-29T22:52:55.207Z,25.43
2022-07-29T22:55:57.573Z,25.35
2022-07-29T22:59:00.194Z,25.16
2022-07-29T23:02:02.433Z,25.11
2022-07-29T23:05:05.238Z,25.21
2022-07-29T23:08:08.920Z,25.21
2022-07-29T23:11:11.443Z,25.17
2022-07-29T23:14:13.710Z,25.00
2022-07-29T23:17:16.335Z,25.10
2022-07-29T23:20:19.179Z,25.06
2022-07-29T23:23:21.696Z,25.10
2022-07-29T23:26:23.919Z,24.99
2022-07-29T23:29:26.783Z,24.95
2022-07-29T23:32:29.036Z,24.92
2022-07-29T23:35:31.591Z,24.93
2022-07-29T23:38:33.821Z,24.90
2022-07-29T23:41:36.464Z,24.90
2022-07-29T23:44:39.378Z,24.93
2022-07-29T23:47:42.476Z,24.94
2022-07-29T23:50:45.116Z,24.80
2022-07-29T23:53:53.068Z,24.80
2022-07-29T23:56:57.912Z,24.79
